Time;durP1;ratioP1;P1;durP2;ratioP2;P2;SDS_P1;SDS_P2;PMS_P1;PMS_P2;Temp;Humidity;BMP_temperature;BMP_pressure;BME280_temperature;BME280_humidity;BME280_pressure;Samples;Min_cycle;Max_cycle;Signal;HPM_P1;HPM_P2
2021/10/08 00:01:30;;;;;;;182.30;15.25;;;6.10;99.90;;;;;;5077208;28;20068;-68
2021/10/08 00:03:56;;;;;;;154.93;15.55;;;6.10;99.90;;;;;;5108555;27;20115;-68
2021/10/08 00:06:22;;;;;;;124.43;14.10;;;6.10;99.90;;;;;;5078816;28;20049;-68
2021/10/08 00:08:48;;;;;;;127.93;14.80;;;6.10;99.90;;;;;;5080004;28;20036;-68
2021/10/08 00:11:14;;;;;;;175.82;16.80;;;6.10;99.90;;;;;;5078542;28;20475;-68
2021/10/08 00:13:40;;;;;;;101.53;14.50;;;6.10;99.90;;;;;;5097958;27;21525;-68
2021/10/08 00:16:06;;;;;;;95.35;12.52;;;6.00;99.90;;;;;;5079564;28;20040;-67
2021/10/08 00:18:33;;;;;;;99.43;14.27;;;6.00;99.90;;;;;;5079669;28;20066;-68
2021/10/08 00:20:59;;;;;;;34.72;12.35;;;5.90;99.90;;;;;;5110856;27;20044;-68
2021/10/08 00:23:25;;;;;;;94.55;13.27;;;6.00;99.90;;;;;;5080133;28;20036;-68
2021/10/08 00:25:51;;;;;;;157.77;14.68;;;5.90;99.90;;;;;;5081292;28;20032;-68
2021/10/08 00:28:16;;;;;;;130.23;14.38;;;5.90;99.90;;;;;;5079338;28;20046;-68
2021/10/08 00:30:42;;;;;;;146.10;15.63;;;5.90;99.90;;;;;;5078632;28;20036;-68
2021/10/08 00:33:08;;;;;;;98.97;13.85;;;5.90;99.90;;;;;;5076251;28;20043;-68
2021/10/08 00:35:34;;;;;;;61.28;12.93;;;5.80;99.90;;;;;;5081543;28;20070;-68
2021/10/08 00:38:03;;;;;;;119.82;14.23;;;5.80;99.90;;;;;;5076032;28;20551;-67
2021/10/08 00:40:31;;;;;;;185.80;16.35;;;5.80;99.90;;;;;;5079140;28;20040;-68
2021/10/08 00:42:57;;;;;;;101.88;13.93;;;5.80;99.90;;;;;;5080722;28;20036;-68
2021/10/08 00:45:22;;;;;;;99.22;13.52;;;5.70;99.90;;;;;;5076229;28;20039;-68
2021/10/08 00:48:00;;;;;;;57.10;12.15;;;5.70;99.90;;;;;;5074244;28;20475;-68
2021/10/08 00:50:26;;;;;;;116.00;12.75;;;5.70;99.90;;;;;;5079246;28;20048;-67
2021/10/08 00:52:52;;;;;;;68.13;12.30;;;5.70;99.90;;;;;;5076442;28;20036;-68
2021/10/08 00:55:18;;;;;;;126.28;15.73;;;5.70;99.90;;;;;;5075501;28;20043;-67
2021/10/08 00:57:46;;;;;;;146.63;14.23;;;5.70;99.90;;;;;;5074777;28;20044;-67
2021/10/08 01:00:13;;;;;;;163.20;15.88;;;5.70;99.90;;;;;;5078281;28;20046;-67
2021/10/08 01:02:39;;;;;;;186.23;16.88;;;5.80;99.90;;;;;;5093509;27;20035;-68
2021/10/08 01:05:05;;;;;;;162.52;15.50;;;5.70;99.90;;;;;;5077033;28;20044;-68
2021/10/08 01:07:31;;;;;;;142.13;13.25;;;5.80;99.90;;;;;;5079590;28;20036;-68
2021/10/08 01:09:56;;;;;;;125.55;13.38;;;5.70;99.90;;;;;;5078227;28;20514;-68
2021/10/08 01:12:22;;;;;;;135.18;14.82;;;5.70;99.90;;;;;;5077485;28;20071;-68
2021/10/08 01:14:48;;;;;;;79.55;12.98;;;5.60;99.90;;;;;;5077141;28;20052;-68
2021/10/08 01:17:15;;;;;;;54.40;12.85;;;5.60;99.90;;;;;;5078390;28;20048;-68
2021/10/08 01:19:41;;;;;;;82.75;12.02;;;5.70;99.90;;;;;;5076190;28;20084;-68
2021/10/08 01:22:06;;;;;;;72.28;12.10;;;5.60;99.90;;;;;;5074773;28;20124;-68
2021/10/08 01:24:32;;;;;;;32.08;9.63;;;5.60;99.90;;;;;;5079153;28;20075;-67
2021/10/08 01:27:00;;;;;;;68.47;12.07;;;5.60;99.90;;;;;;5109570;27;20032;-67
2021/10/08 01:29:26;;;;;;;49.10;9.82;;;5.60;99.90;;;;;;5079087;28;20165;-68
2021/10/08 01:31:51;;;;;;;97.22;10.73;;;5.60;99.90;;;;;;5106056;27;21149;-68
2021/10/08 01:34:17;;;;;;;105.40;11.57;;;5.60;99.90;;;;;;5077208;28;20043;-68
2021/10/08 01:36:43;;;;;;;158.80;12.43;;;5.60;99.90;;;;;;5075522;28;20115;-67
2021/10/08 01:39:09;;;;;;;71.65;10.40;;;5.50;99.90;;;;;;5074097;28;20048;-68
2021/10/08 01:41:34;;;;;;;93.80;11.95;;;5.50;99.90;;;;;;5076408;28;20052;-68
2021/10/08 01:44:00;;;;;;;91.25;10.82;;;5.40;99.90;;;;;;5077455;28;20646;-67
2021/10/08 01:46:25;;;;;;;73.18;10.88;;;5.40;99.90;;;;;;5076809;28;20040;-68
2021/10/08 01:48:51;;;;;;;43.40;10.43;;;5.40;99.90;;;;;;5076647;28;20040;-68
2021/10/08 01:51:16;;;;;;;94.22;11.27;;;5.50;99.90;;;;;;5079174;28;20036;-67
2021/10/08 01:53:42;;;;;;;131.70;12.35;;;5.50;99.90;;;;;;5080130;28;20043;-67
2021/10/08 01:56:07;;;;;;;101.22;12.82;;;5.50;99.90;;;;;;5078158;28;20056;-67
2021/10/08 01:58:34;;;;;;;142.85;14.52;;;5.50;99.90;;;;;;5079003;28;20064;-68
2021/10/08 02:00:59;;;;;;;46.92;10.25;;;5.50;99.90;;;;;;5079153;28;20548;-68
2021/10/08 02:03:25;;;;;;;146.70;12.73;;;5.50;99.90;;;;;;5078318;28;20035;-68
2021/10/08 02:05:50;;;;;;;214.68;14.90;;;5.50;99.90;;;;;;5079615;28;20040;-67
2021/10/08 02:08:16;;;;;;;158.98;13.73;;;5.50;99.90;;;;;;5083640;28;20028;-68
2021/10/08 02:10:42;;;;;;;71.78;11.77;;;5.40;99.90;;;;;;5085686;28;20036;-67
2021/10/08 02:13:07;;;;;;;84.30;13.00;;;5.50;99.90;;;;;;5080882;28;20048;-67
2021/10/08 02:15:33;;;;;;;113.00;14.07;;;5.50;99.90;;;;;;5081851;28;20047;-67
2021/10/08 02:17:58;;;;;;;117.20;12.23;;;5.50;99.90;;;;;;5081696;28;20060;-68
2021/10/08 02:20:24;;;;;;;89.25;13.20;;;5.50;99.90;;;;;;5080266;28;20040;-68
2021/10/08 02:22:49;;;;;;;93.55;13.60;;;5.40;99.90;;;;;;5082508;28;20032;-68
2021/10/08 02:25:15;;;;;;;109.55;13.38;;;5.40;99.90;;;;;;5082650;28;20028;-68
2021/10/08 02:27:41;;;;;;;68.75;12.30;;;5.50;99.90;;;;;;5080812;28;20537;-68
2021/10/08 02:30:08;;;;;;;63.72;12.00;;;5.50;99.90;;;;;;5084413;28;20063;-68
2021/10/08 02:32:34;;;;;;;97.00;12.65;;;5.50;99.90;;;;;;5088857;28;20105;-68
2021/10/08 02:34:59;;;;;;;59.45;12.55;;;5.50;99.90;;;;;;5087025;28;20036;-68
2021/10/08 02:37:25;;;;;;;56.95;11.82;;;5.50;99.90;;;;;;5089181;28;20075;-68
2021/10/08 02:39:50;;;;;;;100.05;13.32;;;5.50;99.90;;;;;;5089402;28;20052;-68
2021/10/08 02:42:16;;;;;;;73.22;12.73;;;5.50;99.90;;;;;;5093873;28;20028;-68
2021/10/08 02:44:41;;;;;;;82.22;13.07;;;5.50;99.90;;;;;;5091390;28;20048;-67
2021/10/08 02:47:07;;;;;;;190.65;15.93;;;5.50;99.90;;;;;;5087902;28;20501;-68
2021/10/08 02:49:33;;;;;;;101.47;13.43;;;5.50;99.90;;;;;;5119718;27;20047;-68
2021/10/08 02:51:58;;;;;;;121.18;14.50;;;5.40;99.90;;;;;;5086636;28;20040;-68
2021/10/08 02:54:24;;;;;;;140.25;14.98;;;5.40;99.90;;;;;;5086723;28;20132;-68
2021/10/08 02:56:50;;;;;;;149.82;14.82;;;5.40;99.90;;;;;;5088004;28;20119;-68
2021/10/08 02:59:15;;;;;;;106.15;14.25;;;5.50;99.90;;;;;;5123099;27;20467;-68
2021/10/08 03:01:41;;;;;;;95.97;13.15;;;5.40;99.90;;;;;;5090774;28;20050;-68
2021/10/08 03:04:06;;;;;;;129.43;13.73;;;5.40;99.90;;;;;;5090273;28;20089;-68
2021/10/08 03:06:32;;;;;;;104.63;13.77;;;5.40;99.90;;;;;;5091876;28;20093;-68
2021/10/08 03:08:58;;;;;;;150.80;14.35;;;5.40;99.90;;;;;;5090024;28;20035;-68
2021/10/08 03:11:25;;;;;;;123.03;13.55;;;5.40;99.90;;;;;;5072579;28;20040;-68
2021/10/08 03:13:50;;;;;;;68.35;11.40;;;5.40;99.90;;;;;;5087046;28;20039;-68
2021/10/08 03:16:16;;;;;;;111.38;12.05;;;5.30;99.90;;;;;;5089353;28;20106;-68
2021/10/08 03:18:41;;;;;;;134.05;11.82;;;5.30;99.90;;;;;;5090117;28;20200;-68
2021/10/08 03:21:07;;;;;;;192.40;15.00;;;5.40;99.90;;;;;;5090095;28;20047;-68
2021/10/08 03:23:32;;;;;;;132.32;11.20;;;5.40;99.90;;;;;;5090439;28;20036;-67
2021/10/08 03:25:58;;;;;;;134.02;12.35;;;5.40;99.90;;;;;;5089098;28;20044;-68
2021/10/08 03:28:24;;;;;;;124.05;12.95;;;5.30;99.90;;;;;;5086196;28;20036;-68
2021/10/08 03:30:50;;;;;;;87.63;11.50;;;5.30;99.90;;;;;;5088067;28;20126;-67
2021/10/08 03:33:16;;;;;;;165.88;12.52;;;5.30;99.90;;;;;;5086312;28;20043;-67
2021/10/08 03:35:44;;;;;;;121.85;12.23;;;5.30;99.90;;;;;;5088307;28;20044;-68
2021/10/08 03:38:17;;;;;;;113.45;11.95;;;5.30;99.90;;;;;;5088089;28;20043;-68
2021/10/08 03:40:50;;;;;;;136.45;12.32;;;5.20;99.90;;;;;;5090769;28;20672;-68
2021/10/08 03:43:16;;;;;;;177.70;13.15;;;5.20;99.90;;;;;;5089761;28;20157;-68
2021/10/08 03:46:25;;;;;;;150.65;14.15;;;5.20;99.90;;;;;;5086747;28;20123;-68
2021/10/08 03:50:56;;;;;;;95.35;11.55;;;5.10;99.90;;;;;;5088112;28;20051;-68
2021/10/08 03:53:21;;;;;;;149.05;12.52;;;5.20;99.90;;;;;;5089050;28;20036;-68
2021/10/08 03:55:47;;;;;;;171.25;14.30;;;5.10;99.90;;;;;;5091357;28;20036;-68
2021/10/08 03:58:12;;;;;;;180.68;12.88;;;5.20;99.90;;;;;;5085016;28;20431;-68
2021/10/08 04:00:38;;;;;;;127.82;13.90;;;5.10;99.90;;;;;;5086030;28;20067;-68
2021/10/08 04:03:04;;;;;;;80.40;12.57;;;5.10;99.90;;;;;;5087237;28;20044;-68
2021/10/08 04:05:29;;;;;;;106.00;11.38;;;5.00;99.90;;;;;;5091464;28;20116;-68
2021/10/08 04:07:55;;;;;;;105.88;11.23;;;5.10;99.90;;;;;;5089048;28;20383;-68
2021/10/08 04:10:20;;;;;;;62.50;9.90;;;5.10;99.90;;;;;;5090069;28;20047;-68
2021/10/08 04:12:46;;;;;;;89.22;11.05;;;5.00;99.90;;;;;;5088945;28;20499;-68
2021/10/08 04:15:11;;;;;;;67.43;10.68;;;4.90;99.90;;;;;;5084728;28;20819;-68
2021/10/08 04:17:37;;;;;;;76.60;9.90;;;5.00;99.90;;;;;;5088689;28;20051;-68
2021/10/08 04:20:03;;;;;;;68.25;10.38;;;4.90;99.90;;;;;;5085004;28;20411;-68
2021/10/08 04:22:29;;;;;;;101.97;11.60;;;4.90;99.90;;;;;;5085352;28;20038;-68
2021/10/08 04:24:55;;;;;;;50.45;9.75;;;4.90;99.90;;;;;;5087620;28;20039;-68
2021/10/08 04:27:20;;;;;;;59.97;10.05;;;4.90;99.90;;;;;;5086224;28;20581;-68
2021/10/08 04:29:46;;;;;;;54.78;9.77;;;4.80;99.90;;;;;;5088633;28;20036;-68
2021/10/08 04:32:11;;;;;;;115.18;11.32;;;4.90;99.90;;;;;;5088384;28;20043;-68
2021/10/08 04:34:37;;;;;;;81.93;10.48;;;4.90;99.90;;;;;;5086129;28;20407;-68
2021/10/08 04:37:02;;;;;;;35.83;8.90;;;4.80;99.90;;;;;;5085195;28;20490;-68
2021/10/08 04:39:28;;;;;;;59.72;9.55;;;4.90;99.90;;;;;;5084248;28;20046;-68
2021/10/08 04:41:53;;;;;;;69.45;10.25;;;4.90;99.90;;;;;;5090165;28;20028;-68
2021/10/08 04:44:19;;;;;;;65.25;10.48;;;4.90;99.90;;;;;;5088662;28;20487;-68
2021/10/08 04:46:45;;;;;;;53.22;10.18;;;4.80;99.90;;;;;;5086883;28;20039;-68
2021/10/08 04:49:10;;;;;;;47.90;10.60;;;4.80;99.90;;;;;;5085278;28;20036;-68
2021/10/08 04:51:36;;;;;;;59.78;10.02;;;4.80;99.90;;;;;;5086083;28;20036;-68
2021/10/08 04:54:02;;;;;;;68.25;9.32;;;4.80;99.90;;;;;;5084953;28;20035;-68
2021/10/08 04:56:28;;;;;;;121.35;11.02;;;4.80;99.90;;;;;;5084921;28;20103;-68
2021/10/08 04:58:53;;;;;;;65.38;10.30;;;4.80;99.90;;;;;;5084965;28;20044;-69
2021/10/08 05:01:19;;;;;;;145.45;12.10;;;4.80;99.90;;;;;;5086101;28;20076;-68
2021/10/08 05:03:45;;;;;;;119.45;12.63;;;4.70;99.90;;;;;;5085242;28;20409;-68
2021/10/08 05:06:11;;;;;;;54.17;9.88;;;4.70;99.90;;;;;;5084523;28;20504;-68
2021/10/08 05:08:36;;;;;;;51.30;8.82;;;4.70;99.90;;;;;;5086373;28;20048;-68
2021/10/08 05:11:02;;;;;;;60.13;9.82;;;4.70;99.90;;;;;;5084389;28;20582;-68
2021/10/08 05:13:28;;;;;;;49.55;9.02;;;4.70;99.90;;;;;;5087966;28;20106;-68
2021/10/08 05:15:53;;;;;;;71.45;11.23;;;4.70;99.90;;;;;;5082774;28;20032;-68
2021/10/08 05:18:19;;;;;;;81.40;10.65;;;4.70;99.90;;;;;;5076732;28;20101;-68
2021/10/08 05:20:45;;;;;;;90.43;10.98;;;4.70;99.90;;;;;;5078461;28;20132;-68
2021/10/08 05:23:10;;;;;;;70.30;10.52;;;4.70;99.90;;;;;;5110845;27;20047;-68
2021/10/08 05:25:38;;;;;;;64.97;10.80;;;4.70;99.90;;;;;;5078709;28;20109;-68
2021/10/08 05:28:04;;;;;;;55.17;10.07;;;4.70;99.90;;;;;;5077503;28;20044;-68
2021/10/08 05:30:29;;;;;;;62.55;10.20;;;4.80;99.90;;;;;;5060827;28;20054;-68
2021/10/08 05:32:55;;;;;;;80.78;10.02;;;4.70;99.90;;;;;;5113186;27;20367;-68
2021/10/08 05:35:20;;;;;;;57.22;10.57;;;4.80;99.90;;;;;;5078508;28;20209;-68
2021/10/08 05:37:46;;;;;;;75.72;10.88;;;4.80;99.90;;;;;;5078356;28;20062;-68
2021/10/08 05:40:12;;;;;;;83.05;10.68;;;4.80;99.90;;;;;;5077823;28;20065;-68
2021/10/08 05:42:38;;;;;;;67.90;10.38;;;4.70;99.90;;;;;;5077346;28;20135;-68
2021/10/08 05:45:04;;;;;;;61.38;10.43;;;4.70;99.90;;;;;;5075579;28;20048;-68
2021/10/08 05:47:30;;;;;;;54.42;10.57;;;4.80;99.90;;;;;;5078387;28;20167;-68
2021/10/08 05:49:55;;;;;;;80.88;9.75;;;4.70;99.90;;;;;;5076278;28;20040;-67
2021/10/08 05:52:21;;;;;;;71.32;11.23;;;4.70;99.90;;;;;;5075378;28;20048;-68
2021/10/08 05:54:46;;;;;;;65.90;11.43;;;4.70;99.90;;;;;;5109819;27;20132;-69
2021/10/08 05:57:12;;;;;;;93.78;11.05;;;4.80;99.90;;;;;;5079304;28;20028;-68
2021/10/08 05:59:38;;;;;;;76.32;11.60;;;4.80;99.90;;;;;;5079423;28;20386;-68
2021/10/08 06:02:03;;;;;;;72.07;11.93;;;4.80;99.90;;;;;;5076444;28;20131;-68
2021/10/08 06:04:29;;;;;;;74.50;11.40;;;4.80;99.90;;;;;;5082131;28;20031;-68
2021/10/08 06:06:55;;;;;;;76.80;11.02;;;4.80;99.90;;;;;;5111409;27;20142;-68
2021/10/08 06:09:20;;;;;;;137.32;13.93;;;4.80;99.90;;;;;;5079942;28;20025;-68
2021/10/08 06:11:46;;;;;;;132.80;12.25;;;4.90;99.90;;;;;;5081391;28;20040;-68
2021/10/08 06:14:12;;;;;;;109.53;12.30;;;4.80;99.90;;;;;;5077742;28;20059;-68
2021/10/08 06:16:38;;;;;;;233.07;16.25;;;4.80;99.90;;;;;;5077555;28;20173;-68
2021/10/08 06:19:03;;;;;;;162.80;13.90;;;4.80;99.90;;;;;;5078941;28;20600;-68
2021/10/08 06:21:29;;;;;;;209.98;16.65;;;4.80;99.90;;;;;;5077046;28;20049;-68
2021/10/08 06:23:54;;;;;;;238.20;20.67;;;4.80;99.90;;;;;;5077940;28;20036;-68
2021/10/08 06:26:20;;;;;;;253.48;19.52;;;4.80;99.90;;;;;;5110975;27;20051;-68
2021/10/08 06:28:46;;;;;;;202.35;18.05;;;4.90;99.90;;;;;;5079656;28;20070;-68
2021/10/08 06:31:11;;;;;;;218.25;20.83;;;4.90;99.90;;;;;;5076707;28;20043;-68
2021/10/08 06:33:37;;;;;;;172.55;19.25;;;5.00;99.90;;;;;;5073586;28;20071;-68
2021/10/08 06:36:03;;;;;;;196.50;18.63;;;5.00;99.90;;;;;;5077945;28;20115;-67
2021/10/08 06:38:29;;;;;;;169.75;19.27;;;5.10;99.90;;;;;;5080188;28;20379;-68
2021/10/08 06:40:54;;;;;;;219.75;20.70;;;5.10;99.90;;;;;;5082946;28;20469;-67
2021/10/08 06:43:20;;;;;;;154.25;19.75;;;5.20;99.90;;;;;;5084421;28;20041;-67
2021/10/08 06:45:46;;;;;;;130.77;17.77;;;5.20;99.90;;;;;;5085602;28;20075;-67
2021/10/08 06:48:11;;;;;;;117.22;18.02;;;5.30;99.90;;;;;;5085646;28;20108;-68
2021/10/08 06:50:37;;;;;;;146.43;18.50;;;5.40;99.90;;;;;;5116808;27;20043;-67
2021/10/08 06:53:03;;;;;;;145.93;18.85;;;5.40;99.90;;;;;;5085299;28;20063;-68
2021/10/08 06:55:29;;;;;;;134.45;19.13;;;5.60;99.90;;;;;;5089315;28;20044;-67
2021/10/08 06:57:55;;;;;;;329.67;27.45;;;5.60;99.90;;;;;;5085328;28;20048;-67
2021/10/08 07:00:20;;;;;;;199.88;19.65;;;5.70;99.90;;;;;;5090813;28;20036;-67
2021/10/08 07:02:53;;;;;;;225.80;20.27;;;5.70;99.90;;;;;;5082334;28;20033;-67
2021/10/08 07:05:22;;;;;;;207.73;19.77;;;5.80;99.90;;;;;;5092256;28;20093;-68
2021/10/08 07:07:49;;;;;;;80.50;16.90;;;5.70;99.90;;;;;;5087095;28;20116;-71
2021/10/08 07:10:16;;;;;;;175.45;21.45;;;5.80;99.90;;;;;;5084634;28;20041;-67
2021/10/08 07:12:42;;;;;;;153.27;19.00;;;6.00;99.90;;;;;;5078125;28;20097;-67
2021/10/08 07:15:16;;;;;;;60.17;14.65;;;6.00;99.90;;;;;;5112697;27;20044;-67
2021/10/08 07:17:45;;;;;;;266.10;24.85;;;6.10;99.90;;;;;;5079584;28;20040;-67
2021/10/08 07:20:13;;;;;;;76.95;14.73;;;6.30;99.90;;;;;;5078177;28;20080;-67
2021/10/08 07:22:39;;;;;;;105.50;18.02;;;6.30;99.90;;;;;;5111426;27;20047;-67
2021/10/08 07:25:06;;;;;;;127.68;15.98;;;6.50;99.90;;;;;;5076134;28;20406;-67
2021/10/08 07:27:33;;;;;;;35.88;12.05;;;6.50;99.90;;;;;;5079916;28;20114;-67
2021/10/08 07:29:58;;;;;;;38.92;13.07;;;6.60;99.90;;;;;;5078352;28;20055;-67
2021/10/08 07:32:24;;;;;;;45.08;13.05;;;6.70;99.90;;;;;;5078402;28;20374;-67
2021/10/08 07:34:50;;;;;;;36.88;11.38;;;6.80;99.90;;;;;;5080634;28;20040;-67
2021/10/08 07:37:16;;;;;;;22.58;10.98;;;6.90;99.90;;;;;;5075720;28;20083;-67
2021/10/08 07:39:42;;;;;;;25.08;11.52;;;7.00;99.90;;;;;;5082483;28;20804;-67
2021/10/08 07:42:08;;;;;;;45.88;12.70;;;7.10;99.90;;;;;;5095900;27;20036;-67
2021/10/08 07:44:35;;;;;;;44.17;10.82;;;7.20;99.90;;;;;;5081687;28;20040;-68
2021/10/08 07:47:00;;;;;;;24.33;11.48;;;7.20;99.90;;;;;;5074914;28;20044;-67
2021/10/08 07:49:26;;;;;;;12.30;10.98;;;7.30;99.90;;;;;;5079670;28;20050;-67
2021/10/08 07:51:52;;;;;;;14.40;10.77;;;7.40;99.90;;;;;;5079999;28;20097;-67
2021/10/08 07:54:17;;;;;;;15.00;11.45;;;7.50;99.90;;;;;;5084270;28;20055;-67
2021/10/08 07:56:43;;;;;;;22.52;12.57;;;7.60;99.90;;;;;;5074486;28;20044;-67
2021/10/08 07:59:08;;;;;;;23.85;14.60;;;7.70;99.90;;;;;;5079560;28;20048;-67
2021/10/08 08:01:34;;;;;;;38.42;13.80;;;7.80;99.90;;;;;;5078218;28;20104;-67
2021/10/08 08:04:00;;;;;;;24.38;15.30;;;7.90;99.90;;;;;;5079218;28;20103;-67
2021/10/08 08:06:25;;;;;;;25.98;15.43;;;7.90;99.90;;;;;;5075895;28;20032;-67
2021/10/08 08:08:51;;;;;;;38.47;17.13;;;8.00;99.90;;;;;;5083396;28;20387;-67
2021/10/08 08:11:17;;;;;;;30.83;17.00;;;8.20;99.90;;;;;;5076508;28;20036;-67
2021/10/08 08:13:42;;;;;;;29.13;18.17;;;8.30;99.90;;;;;;5080960;28;20050;-67
2021/10/08 08:16:08;;;;;;;28.63;17.35;;;8.40;99.90;;;;;;5078673;28;20075;-67
2021/10/08 08:18:35;;;;;;;27.85;17.23;;;8.50;99.90;;;;;;5078711;28;20047;-68
2021/10/08 08:21:01;;;;;;;34.38;17.75;;;8.50;99.90;;;;;;5080253;28;20040;-68
2021/10/08 08:23:27;;;;;;;33.15;19.92;;;8.60;99.90;;;;;;5079263;28;20040;-68
2021/10/08 08:25:54;;;;;;;28.35;17.40;;;8.70;99.90;;;;;;5081154;28;20389;-67
2021/10/08 08:28:20;;;;;;;40.65;20.55;;;8.80;99.90;;;;;;5077789;28;20036;-67
2021/10/08 08:30:46;;;;;;;33.35;19.85;;;8.90;99.90;;;;;;5080358;28;20547;-67
2021/10/08 08:33:12;;;;;;;41.67;18.77;;;9.10;99.90;;;;;;5081882;28;20068;-68
2021/10/08 08:35:38;;;;;;;39.28;20.23;;;9.20;99.90;;;;;;5077776;28;20075;-68
2021/10/08 08:38:04;;;;;;;32.45;19.88;;;9.20;99.90;;;;;;5082194;28;20510;-67
2021/10/08 08:40:30;;;;;;;27.80;18.95;;;9.40;99.90;;;;;;5080329;28;20041;-67
2021/10/08 08:42:57;;;;;;;26.30;18.88;;;9.50;99.90;;;;;;5078472;28;20036;-68
2021/10/08 08:45:23;;;;;;;27.83;20.48;;;9.60;99.90;;;;;;5079590;28;20047;-68
2021/10/08 08:48:00;;;;;;;30.08;22.17;;;9.80;99.90;;;;;;5077829;28;20040;-68
2021/10/08 08:50:27;;;;;;;32.80;22.98;;;9.80;99.90;;;;;;5075330;28;20044;-68
2021/10/08 08:52:53;;;;;;;33.85;22.40;;;9.90;99.90;;;;;;5078738;28;20048;-68
2021/10/08 08:55:20;;;;;;;29.17;20.75;;;10.00;99.90;;;;;;5077117;28;20044;-68
2021/10/08 08:57:46;;;;;;;31.65;21.92;;;10.10;99.90;;;;;;5080745;28;20123;-68
2021/10/08 09:00:19;;;;;;;33.85;23.58;;;10.20;99.90;;;;;;5083448;28;20037;-68
2021/10/08 09:02:53;;;;;;;33.15;23.00;;;10.40;99.90;;;;;;5079277;28;20089;-68
2021/10/08 09:05:25;;;;;;;36.22;24.83;;;10.50;99.90;;;;;;5112263;27;20138;-68
2021/10/08 09:07:55;;;;;;;36.47;24.55;;;10.60;99.90;;;;;;5081312;28;20036;-68
2021/10/08 09:10:26;;;;;;;37.80;24.13;;;10.80;99.90;;;;;;5077276;28;20654;-68
2021/10/08 09:12:54;;;;;;;35.47;23.95;;;10.90;99.90;;;;;;5076523;28;20074;-68
2021/10/08 09:15:20;;;;;;;35.70;23.60;;;11.00;99.90;;;;;;5080358;28;20077;-68
2021/10/08 09:17:46;;;;;;;33.45;23.05;;;11.20;99.90;;;;;;5078071;28;20039;-68
2021/10/08 09:20:16;;;;;;;33.63;23.15;;;11.40;99.90;;;;;;5078024;28;20441;-68
2021/10/08 09:22:41;;;;;;;29.33;22.13;;;11.60;99.90;;;;;;5112197;27;20039;-68
2021/10/08 09:25:17;;;;;;;35.03;23.77;;;11.70;99.90;;;;;;5075058;28;20382;-68
2021/10/08 09:27:44;;;;;;;31.23;21.33;;;11.90;99.90;;;;;;5075311;28;20044;-68
2021/10/08 09:30:11;;;;;;;36.17;23.98;;;12.00;99.90;;;;;;5076705;28;20040;-68
2021/10/08 09:32:42;;;;;;;31.17;22.92;;;12.20;99.90;;;;;;5080017;28;20094;-68
2021/10/08 09:35:09;;;;;;;28.55;21.92;;;12.30;99.90;;;;;;5077329;28;20079;-68
2021/10/08 09:37:36;;;;;;;32.13;23.55;;;12.40;99.90;;;;;;5071933;28;20047;-68
2021/10/08 09:40:04;;;;;;;26.60;21.00;;;12.50;99.90;;;;;;5076696;28;20052;-68
2021/10/08 09:42:34;;;;;;;31.73;22.85;;;12.70;99.90;;;;;;5079192;28;20062;-68
2021/10/08 09:45:02;;;;;;;33.05;23.40;;;12.80;99.90;;;;;;5077332;28;20043;-68
2021/10/08 09:47:28;;;;;;;25.73;20.38;;;12.90;99.90;;;;;;5078610;28;20052;-68
2021/10/08 09:50:08;;;;;;;25.27;19.77;;;13.10;99.90;;;;;;5080105;28;20043;-68
2021/10/08 09:52:34;;;;;;;26.75;19.95;;;13.20;99.90;;;;;;5079645;28;20036;-68
2021/10/08 09:55:02;;;;;;;23.77;19.60;;;13.30;99.90;;;;;;5080213;28;20047;-68
2021/10/08 09:57:29;;;;;;;23.35;18.80;;;13.30;99.90;;;;;;5080385;28;20043;-68
2021/10/08 09:59:55;;;;;;;21.90;16.83;;;13.50;99.90;;;;;;5079219;28;20051;-68
2021/10/08 10:02:21;;;;;;;21.10;17.50;;;13.50;99.90;;;;;;5080792;28;20037;-68
2021/10/08 10:04:55;;;;;;;19.20;15.80;;;13.60;99.90;;;;;;5077195;28;20044;-68
2021/10/08 10:07:23;;;;;;;21.33;17.42;;;13.70;99.90;;;;;;5077291;28;22176;-68
2021/10/08 10:09:49;;;;;;;19.60;15.00;;;13.80;99.90;;;;;;5074590;28;20085;-68
2021/10/08 10:12:19;;;;;;;18.58;14.80;;;13.90;99.90;;;;;;5075541;28;20410;-68
2021/10/08 10:14:46;;;;;;;19.00;15.73;;;14.00;99.90;;;;;;5082606;28;20062;-68
2021/10/08 10:17:13;;;;;;;17.45;15.55;;;14.20;99.90;;;;;;5079438;28;20051;-68
2021/10/08 10:19:45;;;;;;;17.27;14.60;;;14.40;99.90;;;;;;5075143;28;20090;-68
2021/10/08 10:22:20;;;;;;;17.15;15.35;;;14.50;99.90;;;;;;5084460;28;20052;-68
2021/10/08 10:24:47;;;;;;;18.80;15.80;;;14.70;99.90;;;;;;5078817;28;20029;-68
2021/10/08 10:27:15;;;;;;;16.25;14.13;;;14.90;99.90;;;;;;5081252;28;20044;-68
2021/10/08 10:29:45;;;;;;;18.48;13.75;;;15.00;99.90;;;;;;5083584;28;20047;-68
2021/10/08 10:32:11;;;;;;;20.35;14.55;;;15.20;99.90;;;;;;5081363;28;20172;-68
2021/10/08 10:34:39;;;;;;;16.67;13.07;;;15.30;99.90;;;;;;5082761;28;20122;-69
2021/10/08 10:37:05;;;;;;;14.88;13.35;;;15.50;99.90;;;;;;5096957;27;20040;-68
2021/10/08 10:39:31;;;;;;;14.55;12.38;;;15.60;99.90;;;;;;5083624;28;20028;-68
2021/10/08 10:42:00;;;;;;;14.95;12.40;;;15.60;99.90;;;;;;5111500;27;20056;-68
2021/10/08 10:44:28;;;;;;;12.60;11.30;;;15.80;99.90;;;;;;5084399;28;20043;-68
2021/10/08 10:50:37;;;;;;;14.13;11.52;;;15.90;99.90;;;;;;5081513;28;20044;-68
2021/10/08 10:53:04;;;;;;;11.57;10.48;;;15.90;99.90;;;;;;5058722;28;20082;-68
2021/10/08 10:55:34;;;;;;;11.57;9.95;;;16.00;99.90;;;;;;5115327;27;20044;-68
2021/10/08 10:58:08;;;;;;;11.10;9.98;;;16.00;99.90;;;;;;5080177;28;20067;-67
2021/10/08 11:00:44;;;;;;;12.23;9.90;;;16.00;99.90;;;;;;5081556;28;20050;-68
2021/10/08 11:03:11;;;;;;;;;;;16.20;99.90;;;;;;5082520;28;20040;-68
2021/10/08 11:05:39;;;;;;;8.95;7.85;;;16.30;99.90;;;;;;5114344;27;20278;-68
2021/10/08 11:08:31;;;;;;;11.48;8.50;;;16.40;99.90;;;;;;5075851;28;20042;-68
2021/10/08 11:10:59;;;;;;;9.20;8.30;;;16.50;99.90;;;;;;5074400;28;20048;-68
2021/10/08 11:13:28;;;;;;;8.80;7.90;;;16.50;99.90;;;;;;5081422;28;20036;-68
2021/10/08 11:15:58;;;;;;;9.55;8.45;;;16.50;99.90;;;;;;5081478;28;20052;-68
2021/10/08 11:18:43;;;;;;;7.95;6.57;;;16.60;99.90;;;;;;5114095;27;20055;-68
2021/10/08 11:21:12;;;;;;;7.70;6.90;;;16.60;99.90;;;;;;5078948;28;20067;-68
2021/10/08 11:23:39;;;;;;;8.00;7.20;;;16.60;99.90;;;;;;5078329;28;22149;-68
2021/10/08 11:26:08;;;;;;;8.10;7.40;;;16.70;99.90;;;;;;5077604;28;20367;-68
2021/10/08 11:28:42;;;;;;;7.68;6.97;;;16.70;99.90;;;;;;5081904;28;20107;-68
2021/10/08 11:31:15;;;;;;;9.23;8.32;;;16.80;99.90;;;;;;5082383;28;20044;-68
2021/10/08 11:33:49;;;;;;;10.05;9.13;;;16.80;99.90;;;;;;5091295;28;20111;-68
2021/10/08 11:36:29;;;;;;;9.45;7.72;;;16.80;99.90;;;;;;5078416;28;20100;-68
2021/10/08 11:39:08;;;;;;;9.07;8.18;;;16.90;99.90;;;;;;5080090;28;20478;-68
2021/10/08 11:41:34;;;;;;;8.00;6.75;;;17.10;99.90;;;;;;5080142;28;20040;-68
2021/10/08 11:44:36;;;;;;;7.78;6.90;;;17.30;99.90;;;;;;5083079;28;20032;-68
2021/10/08 11:52:44;;;;;;;7.18;6.45;;;17.30;99.90;;;;;;5100658;27;20040;-68
2021/10/08 11:55:19;;;;;;;6.38;5.78;;;17.40;99.90;;;;;;5081333;28;20043;-69
2021/10/08 11:57:52;;;;;;;7.33;6.00;;;17.40;99.90;;;;;;5081220;28;20123;-69
2021/10/08 12:00:21;;;;;;;5.03;4.18;;;17.50;99.90;;;;;;5092449;27;20048;-68
2021/10/08 12:03:01;;;;;;;4.28;3.88;;;17.50;99.90;;;;;;5078572;28;20482;-68
2021/10/08 12:05:39;;;;;;;3.95;3.47;;;17.40;99.90;;;;;;5114887;27;20044;-68
2021/10/08 12:08:05;;;;;;;6.45;3.20;;;17.50;99.90;;;;;;5081205;28;20527;-68
2021/10/08 12:10:30;;;;;;;4.85;4.00;;;17.40;99.90;;;;;;5111588;27;20040;-68
2021/10/08 12:12:58;;;;;;;4.45;4.13;;;17.40;99.90;;;;;;5081278;28;20048;-68
2021/10/08 12:15:32;;;;;;;6.35;4.38;;;17.40;99.90;;;;;;5082479;28;20513;-68
2021/10/08 12:18:00;;;;;;;3.80;3.50;;;17.40;99.90;;;;;;5077607;28;20058;-69
2021/10/08 12:20:33;;;;;;;5.55;4.68;;;17.40;99.90;;;;;;5078539;28;20048;-71
2021/10/08 12:23:19;;;;;;;10.05;4.00;;;17.30;99.90;;;;;;5077031;28;20102;-72
2021/10/08 12:25:46;;;;;;;45.70;7.25;;;17.20;99.90;;;;;;5079919;28;20040;-68
2021/10/08 12:28:17;;;;;;;31.52;6.05;;;17.00;99.90;;;;;;5082265;28;20044;-72
2021/10/08 12:31:04;;;;;;;6.13;5.30;;;17.10;99.90;;;;;;5079049;28;20044;-73
2021/10/08 12:33:31;;;;;;;6.50;5.10;;;17.10;99.90;;;;;;5081093;28;20032;-72
2021/10/08 12:36:19;;;;;;;5.75;5.25;;;17.00;99.90;;;;;;5077803;28;20040;-71
2021/10/08 12:39:04;;;;;;;7.65;6.05;;;16.90;99.90;;;;;;5081157;28;20044;-72
2021/10/08 12:41:47;;;;;;;6.03;5.53;;;16.90;99.90;;;;;;5075037;28;20052;-70
2021/10/08 12:44:19;;;;;;;7.43;6.72;;;17.10;99.90;;;;;;5076039;28;20074;-70
2021/10/08 12:47:12;;;;;;;6.57;6.00;;;17.10;99.90;;;;;;5079292;28;20036;-70